Time;durP1;ratioP1;P1;durP2;ratioP2;P2;SDS_P1;SDS_P2;PMS_P1;PMS_P2;Temp;Humidity;BMP_temperature;BMP_pressure;BME280_temperature;BME280_humidity;BME280_pressure;Samples;Min_cycle;Max_cycle;Signal;HPM_P1;HPM_P2
2022/12/03 00:00:31;;;;;;;20.08;12.35;;;3.30;97.70;;;;;;4956153;29;20288;-66
2022/12/03 00:02:58;;;;;;;19.02;11.48;;;3.30;97.50;;;;;;4956648;29;20253;-66
2022/12/03 00:05:25;;;;;;;19.63;11.95;;;3.30;97.50;;;;;;4956419;29;20268;-66
2022/12/03 00:07:53;;;;;;;19.55;11.95;;;3.30;97.60;;;;;;4955301;29;20245;-66
2022/12/03 00:10:21;;;;;;;20.75;12.80;;;3.20;97.70;;;;;;4956815;29;20681;-66
2022/12/03 00:12:49;;;;;;;19.92;12.43;;;3.30;97.70;;;;;;4956298;29;20217;-66
2022/12/03 00:15:16;;;;;;;17.50;11.80;;;3.30;97.50;;;;;;4956538;29;20193;-66
2022/12/03 00:17:43;;;;;;;19.10;12.30;;;3.30;97.40;;;;;;4956189;29;20182;-65
2022/12/03 00:20:17;;;;;;;18.80;10.90;;;3.30;97.30;;;;;;4956653;29;20229;-65
2022/12/03 00:22:45;;;;;;;19.90;11.90;;;3.30;97.20;;;;;;4956307;29;20261;-65
2022/12/03 00:25:12;;;;;;;24.30;13.60;;;3.30;97.20;;;;;;4956772;29;20233;-65
2022/12/03 00:27:40;;;;;;;25.17;13.00;;;3.30;97.20;;;;;;4955859;29;20194;-66
2022/12/03 00:30:12;;;;;;;18.00;12.73;;;3.30;97.30;;;;;;4956149;29;20236;-66
2022/12/03 00:32:39;;;;;;;17.88;11.02;;;3.40;97.30;;;;;;4950672;28;20547;-65
2022/12/03 00:35:10;;;;;;;18.73;12.02;;;3.40;97.30;;;;;;4954487;29;20608;-65
2022/12/03 00:37:40;;;;;;;21.70;12.32;;;3.40;97.30;;;;;;4953736;29;20285;-65
2022/12/03 00:40:13;;;;;;;17.15;10.85;;;3.40;97.20;;;;;;4954055;29;20213;-66
2022/12/03 00:42:45;;;;;;;17.35;9.43;;;3.40;97.00;;;;;;4954328;29;20204;-66
2022/12/03 00:45:17;;;;;;;16.90;11.27;;;3.40;96.90;;;;;;4954021;29;20197;-65
2022/12/03 00:47:44;;;;;;;18.50;10.75;;;3.50;96.50;;;;;;4953133;29;20217;-65
2022/12/03 00:50:15;;;;;;;22.13;10.60;;;3.40;96.20;;;;;;4955057;28;21851;-65
2022/12/03 00:52:45;;;;;;;16.95;10.85;;;3.40;96.40;;;;;;4955699;29;20204;-65
2022/12/03 00:55:18;;;;;;;15.02;8.63;;;3.30;96.40;;;;;;4955283;29;20197;-66
2022/12/03 00:57:47;;;;;;;15.88;9.95;;;3.30;96.20;;;;;;4955478;29;20193;-65
2022/12/03 01:00:23;;;;;;;16.45;10.75;;;3.30;96.40;;;;;;4955263;29;20586;-66
2022/12/03 01:02:57;;;;;;;15.70;9.85;;;3.20;96.40;;;;;;4955112;29;20580;-66
2022/12/03 01:05:24;;;;;;;18.23;11.20;;;3.20;96.90;;;;;;4955074;29;20288;-66
2022/12/03 01:07:52;;;;;;;19.25;11.27;;;3.20;96.70;;;;;;4955100;29;20284;-65
2022/12/03 01:10:21;;;;;;;16.25;10.65;;;3.20;96.90;;;;;;4954760;29;20200;-65
2022/12/03 01:12:50;;;;;;;16.15;10.07;;;3.20;96.90;;;;;;4955480;29;20198;-65
2022/12/03 01:15:19;;;;;;;14.57;10.07;;;3.20;97.00;;;;;;4954245;29;20269;-65
2022/12/03 01:17:53;;;;;;;16.98;12.73;;;3.20;97.10;;;;;;4955308;29;20190;-66
2022/12/03 01:20:22;;;;;;;16.20;9.38;;;3.20;96.90;;;;;;4955047;29;20762;-66
2022/12/03 01:22:50;;;;;;;18.50;11.10;;;3.20;97.10;;;;;;4955545;29;20213;-65
2022/12/03 01:25:21;;;;;;;17.58;11.05;;;3.20;96.90;;;;;;4954959;29;20190;-65
2022/12/03 01:27:52;;;;;;;17.95;10.13;;;3.10;96.90;;;;;;4955092;29;20217;-65
2022/12/03 01:30:20;;;;;;;15.15;10.60;;;3.10;96.90;;;;;;4954795;29;20192;-65
2022/12/03 01:32:46;;;;;;;16.95;10.18;;;3.10;97.00;;;;;;4955257;29;20216;-65
2022/12/03 01:35:13;;;;;;;15.57;10.00;;;3.20;97.10;;;;;;4954881;29;20319;-65
2022/12/03 01:37:52;;;;;;;15.60;9.50;;;3.20;96.80;;;;;;4954694;29;20197;-66
2022/12/03 01:40:21;;;;;;;14.35;9.15;;;3.10;96.70;;;;;;4954710;29;20220;-66
2022/12/03 01:42:49;;;;;;;19.42;9.55;;;3.10;96.80;;;;;;4954905;29;20222;-66
2022/12/03 01:45:23;;;;;;;17.77;11.52;;;3.10;96.80;;;;;;4954437;29;20197;-65
2022/12/03 01:47:51;;;;;;;16.13;10.02;;;3.10;96.80;;;;;;4954521;29;20230;-65
2022/12/03 01:50:23;;;;;;;17.50;10.07;;;3.10;96.80;;;;;;4954667;29;20618;-65
2022/12/03 01:52:50;;;;;;;16.63;10.75;;;3.20;96.80;;;;;;4935601;29;20755;-66
2022/12/03 01:55:21;;;;;;;15.38;9.90;;;3.20;96.50;;;;;;4935807;29;20344;-65
2022/12/03 01:57:52;;;;;;;14.90;7.70;;;3.20;96.40;;;;;;4953792;29;20192;-66
2022/12/03 02:00:21;;;;;;;17.85;10.98;;;3.30;96.40;;;;;;4954084;28;20222;-65
2022/12/03 02:02:55;;;;;;;14.15;9.27;;;3.30;96.30;;;;;;4954015;29;20268;-65
2022/12/03 02:05:26;;;;;;;15.77;9.45;;;3.30;96.50;;;;;;4954783;29;20596;-65
2022/12/03 02:07:54;;;;;;;17.05;9.68;;;3.40;96.50;;;;;;4953894;29;20193;-65
2022/12/03 02:10:25;;;;;;;14.38;9.65;;;3.40;96.50;;;;;;4954822;29;20197;-65
2022/12/03 02:12:57;;;;;;;15.65;9.55;;;3.40;96.50;;;;;;4953767;29;20198;-65
2022/12/03 02:15:26;;;;;;;17.63;11.20;;;3.40;96.40;;;;;;4954425;29;20591;-66
2022/12/03 02:17:54;;;;;;;15.93;10.57;;;3.40;96.10;;;;;;4953630;29;20221;-66
2022/12/03 02:20:26;;;;;;;13.23;9.23;;;3.30;95.90;;;;;;4954348;29;20224;-65
2022/12/03 02:23:10;;;;;;;16.67;10.30;;;3.20;96.40;;;;;;4954267;29;20287;-66
2022/12/03 02:25:39;;;;;;;14.45;9.02;;;3.10;96.70;;;;;;4954249;29;20186;-65
2022/12/03 02:28:08;;;;;;;15.63;9.93;;;3.00;97.10;;;;;;4953902;29;20205;-65
2022/12/03 02:30:37;;;;;;;15.77;9.35;;;3.00;97.10;;;;;;4953575;29;20198;-65
2022/12/03 02:33:05;;;;;;;16.92;9.40;;;3.00;96.70;;;;;;4937289;29;20197;-66
2022/12/03 02:35:34;;;;;;;15.20;9.95;;;3.00;96.80;;;;;;4953023;29;20233;-66
2022/12/03 02:38:10;;;;;;;14.52;8.80;;;3.00;97.20;;;;;;4954090;29;20201;-65
2022/12/03 02:40:41;;;;;;;19.83;10.27;;;2.90;97.40;;;;;;4953854;29;20228;-65
2022/12/03 02:43:10;;;;;;;17.17;10.70;;;3.00;97.20;;;;;;4954223;29;20270;-65
2022/12/03 02:45:41;;;;;;;14.25;9.15;;;2.90;97.10;;;;;;4953803;29;20186;-65
2022/12/03 02:48:13;;;;;;;18.52;9.93;;;2.90;97.10;;;;;;4954225;29;20204;-66
2022/12/03 02:50:44;;;;;;;16.85;9.90;;;3.00;97.20;;;;;;4953660;29;20570;-66
2022/12/03 02:53:17;;;;;;;17.40;8.88;;;3.00;96.90;;;;;;4953812;29;20619;-66
2022/12/03 02:55:47;;;;;;;14.00;8.65;;;3.00;96.80;;;;;;4953788;29;20241;-66
2022/12/03 02:58:17;;;;;;;16.60;10.10;;;3.00;96.80;;;;;;4953954;29;20205;-66
2022/12/03 03:00:48;;;;;;;18.33;9.38;;;3.10;96.90;;;;;;4953626;29;20723;-66
2022/12/03 03:03:18;;;;;;;14.60;9.68;;;3.10;96.80;;;;;;4953508;29;20201;-66
2022/12/03 03:05:46;;;;;;;15.75;9.95;;;3.20;96.70;;;;;;4953460;29;20249;-66
2022/12/03 03:08:18;;;;;;;15.50;9.90;;;3.30;96.50;;;;;;4953598;29;20276;-65
2022/12/03 03:10:52;;;;;;;15.23;10.65;;;3.30;96.50;;;;;;4954351;29;20544;-66
2022/12/03 03:13:21;;;;;;;16.77;10.35;;;3.30;95.80;;;;;;4955830;28;20190;-66
2022/12/03 03:15:53;;;;;;;14.13;9.00;;;3.20;95.60;;;;;;4957000;29;20200;-66
2022/12/03 03:18:23;;;;;;;18.80;10.63;;;3.10;95.90;;;;;;4957657;29;20684;-65
2022/12/03 03:20:55;;;;;;;13.35;9.40;;;3.10;95.90;;;;;;4957254;29;20590;-65
2022/12/03 03:23:24;;;;;;;13.00;8.88;;;3.00;95.90;;;;;;4957681;29;20236;-66
2022/12/03 03:25:58;;;;;;;12.57;9.18;;;3.00;96.30;;;;;;4957167;29;20197;-66
2022/12/03 03:28:27;;;;;;;12.90;8.27;;;3.00;96.40;;;;;;4957632;29;20288;-65
2022/12/03 03:30:54;;;;;;;10.40;7.80;;;3.00;96.50;;;;;;4957122;29;20221;-65
2022/12/03 03:33:27;;;;;;;12.77;8.85;;;3.00;96.50;;;;;;4957313;29;20209;-66
2022/12/03 03:35:54;;;;;;;12.90;9.20;;;3.00;96.60;;;;;;4957095;29;20198;-65
2022/12/03 03:38:23;;;;;;;14.35;9.13;;;3.00;96.60;;;;;;4957508;29;20249;-66
2022/12/03 03:40:53;;;;;;;14.30;10.05;;;3.10;96.60;;;;;;4954870;29;20224;-65
2022/12/03 03:43:23;;;;;;;13.27;9.05;;;3.00;96.30;;;;;;4956899;29;20252;-65
2022/12/03 03:45:56;;;;;;;14.23;10.07;;;3.10;96.30;;;;;;4956586;29;20221;-65
2022/12/03 03:48:25;;;;;;;12.45;8.80;;;3.10;96.20;;;;;;4957536;29;20200;-65
2022/12/03 03:50:54;;;;;;;14.55;9.93;;;3.10;96.30;;;;;;4956510;29;20281;-65
2022/12/03 03:53:22;;;;;;;12.95;9.23;;;3.10;96.30;;;;;;4957117;29;20236;-65
2022/12/03 03:55:50;;;;;;;10.93;8.35;;;3.10;96.20;;;;;;4956584;29;20556;-65
2022/12/03 03:58:19;;;;;;;15.30;10.13;;;3.20;96.10;;;;;;4957100;29;20265;-65
2022/12/03 04:00:52;;;;;;;12.20;8.32;;;3.20;96.10;;;;;;4956616;29;20249;-66
2022/12/03 04:03:19;;;;;;;13.48;8.98;;;3.30;96.10;;;;;;4957201;29;20683;-65
2022/12/03 04:05:49;;;;;;;13.57;9.25;;;3.30;95.70;;;;;;4956727;29;20253;-65
2022/12/03 04:08:18;;;;;;;15.15;9.77;;;3.30;95.80;;;;;;4957064;29;20233;-66
2022/12/03 04:13:35;;;;;;;16.65;10.40;;;3.20;95.20;;;;;;4957113;29;20245;-65
2022/12/03 04:16:08;;;;;;;13.30;9.18;;;3.20;95.50;;;;;;4955762;29;20189;-66
2022/12/03 04:18:44;;;;;;;13.68;8.75;;;3.20;95.10;;;;;;4956852;29;20229;-65
2022/12/03 04:24:01;;;;;;;18.58;9.52;;;3.00;96.00;;;;;;4956285;28;20193;-65
2022/12/03 04:29:21;;;;;;;11.52;7.88;;;2.90;96.00;;;;;;4957012;29;20193;-65
2022/12/03 04:37:43;;;;;;;12.75;9.00;;;2.90;96.30;;;;;;4956883;29;20290;-65
2022/12/03 04:42:52;;;;;;;15.02;9.55;;;3.00;96.80;;;;;;4955518;29;20748;-65
2022/12/03 04:45:23;;;;;;;15.15;9.25;;;3.00;96.30;;;;;;4955727;29;20201;-65
2022/12/03 04:47:51;;;;;;;13.50;8.45;;;3.00;96.30;;;;;;4955352;29;20182;-65
2022/12/03 04:50:21;;;;;;;14.52;9.43;;;3.10;96.20;;;;;;4956101;29;20241;-65
2022/12/03 04:52:48;;;;;;;14.18;8.52;;;3.10;96.10;;;;;;4955924;29;20647;-65
2022/12/03 04:55:15;;;;;;;14.10;8.88;;;3.10;96.10;;;;;;4955950;29;20194;-65
2022/12/03 04:57:43;;;;;;;13.65;9.25;;;3.20;96.20;;;;;;4955741;29;20339;-66
2022/12/03 05:00:12;;;;;;;12.90;8.88;;;3.20;96.00;;;;;;4955960;29;20201;-65
2022/12/03 05:02:41;;;;;;;13.77;8.50;;;3.20;95.80;;;;;;4956005;28;20224;-65
2022/12/03 05:05:09;;;;;;;10.43;7.03;;;3.10;95.70;;;;;;4955410;28;20217;-65
2022/12/03 05:07:37;;;;;;;12.68;8.80;;;3.20;95.70;;;;;;4955640;29;20245;-65
2022/12/03 05:10:06;;;;;;;11.75;8.30;;;3.20;95.50;;;;;;4955717;29;20272;-65
2022/12/03 05:12:37;;;;;;;13.93;8.80;;;3.10;95.40;;;;;;4955661;29;20554;-65
2022/12/03 05:15:07;;;;;;;15.43;8.25;;;3.10;95.50;;;;;;4955497;29;20186;-65
2022/12/03 05:17:35;;;;;;;13.20;7.97;;;3.20;95.60;;;;;;4955463;29;20656;-65
2022/12/03 05:22:51;;;;;;;12.20;8.15;;;3.20;95.40;;;;;;4955118;29;20336;-64
2022/12/03 05:25:18;;;;;;;12.85;8.38;;;3.20;95.40;;;;;;4955184;29;20193;-65
2022/12/03 05:27:46;;;;;;;15.02;9.90;;;3.20;95.40;;;;;;4955495;29;20194;-65
2022/12/03 05:30:13;;;;;;;12.68;8.15;;;3.20;95.30;;;;;;4955591;29;20201;-65
2022/12/03 05:32:46;;;;;;;11.75;8.30;;;3.20;95.20;;;;;;4955277;29;20193;-65
2022/12/03 05:35:15;;;;;;;12.02;7.22;;;3.20;95.20;;;;;;4954399;28;20186;-65
2022/12/03 05:37:42;;;;;;;11.57;7.70;;;3.20;94.90;;;;;;4955475;29;20202;-65
2022/12/03 05:40:12;;;;;;;13.57;8.82;;;3.20;95.00;;;;;;4954835;29;20195;-65
2022/12/03 05:42:53;;;;;;;12.45;7.57;;;3.20;95.30;;;;;;4955181;29;20715;-65
2022/12/03 05:45:23;;;;;;;10.32;8.00;;;3.20;95.10;;;;;;4955027;29;20196;-66
2022/12/03 05:47:50;;;;;;;11.38;7.50;;;3.20;94.90;;;;;;4955088;29;20289;-65
2022/12/03 05:50:19;;;;;;;13.30;7.82;;;3.20;95.00;;;;;;4955049;29;20217;-65
2022/12/03 05:52:53;;;;;;;13.50;8.45;;;3.30;95.20;;;;;;4955115;29;20264;-65
2022/12/03 05:55:21;;;;;;;9.85;7.03;;;3.40;95.30;;;;;;4955178;29;20233;-66
2022/12/03 05:57:51;;;;;;;11.10;7.10;;;3.40;95.00;;;;;;4954879;29;20194;-65
2022/12/03 06:00:26;;;;;;;12.63;9.18;;;3.40;94.90;;;;;;4955125;29;20244;-65
2022/12/03 06:02:54;;;;;;;14.35;9.52;;;3.30;94.80;;;;;;4954546;29;20217;-65
2022/12/03 06:05:24;;;;;;;13.00;9.48;;;3.30;94.60;;;;;;4954978;28;20229;-66
2022/12/03 06:07:52;;;;;;;13.93;7.97;;;3.10;94.90;;;;;;4954668;29;20281;-65
2022/12/03 06:10:22;;;;;;;12.68;8.88;;;3.20;95.00;;;;;;4954950;29;20724;-65
2022/12/03 06:12:51;;;;;;;10.20;6.72;;;3.10;94.80;;;;;;4954197;29;20724;-65
2022/12/03 06:15:21;;;;;;;13.75;8.32;;;3.10;94.90;;;;;;4954974;29;20248;-66
2022/12/03 06:17:49;;;;;;;10.98;6.90;;;3.10;94.90;;;;;;4953902;29;20189;-65
2022/12/03 06:20:18;;;;;;;12.23;7.88;;;3.00;95.00;;;;;;4954706;29;20229;-65
2022/12/03 06:22:48;;;;;;;11.38;8.57;;;2.90;95.10;;;;;;4953855;29;20221;-65
2022/12/03 06:25:17;;;;;;;13.73;8.13;;;2.90;95.00;;;;;;4954234;29;20197;-65
2022/12/03 06:27:45;;;;;;;11.82;6.65;;;3.00;95.20;;;;;;4954251;29;20198;-65
2022/12/03 06:30:13;;;;;;;10.88;7.22;;;3.00;95.10;;;;;;4954639;29;20193;-65
2022/12/03 06:32:46;;;;;;;12.93;7.60;;;3.00;94.80;;;;;;4954092;29;20205;-65
2022/12/03 06:35:15;;;;;;;11.48;8.68;;;3.10;94.90;;;;;;4935266;29;20190;-65
2022/12/03 06:37:42;;;;;;;15.98;9.68;;;3.10;94.90;;;;;;4935439;29;20194;-65
2022/12/03 06:40:12;;;;;;;12.23;8.23;;;3.00;95.00;;;;;;4954028;29;20656;-66
2022/12/03 06:42:42;;;;;;;10.73;6.80;;;2.90;95.30;;;;;;4954381;29;20578;-65
2022/12/03 06:45:15;;;;;;;13.13;6.90;;;2.90;95.10;;;;;;4953458;29;20236;-65
2022/12/03 06:47:42;;;;;;;11.05;7.38;;;2.90;95.10;;;;;;4953177;29;20346;-66
2022/12/03 06:50:12;;;;;;;9.55;7.15;;;2.90;95.00;;;;;;4954057;29;20193;-65
2022/12/03 06:52:40;;;;;;;11.02;7.32;;;2.90;95.10;;;;;;4954353;29;20200;-65
2022/12/03 06:55:11;;;;;;;10.95;7.18;;;2.90;95.10;;;;;;4953557;29;20189;-65
2022/12/03 06:57:40;;;;;;;12.85;8.10;;;2.90;95.00;;;;;;4954237;29;20300;-65
2022/12/03 07:00:12;;;;;;;11.40;7.57;;;2.90;95.20;;;;;;4953739;29;20190;-65
2022/12/03 07:02:43;;;;;;;10.10;6.40;;;2.90;95.00;;;;;;4954091;29;20225;-65
2022/12/03 07:05:10;;;;;;;11.77;8.07;;;2.80;95.10;;;;;;4953806;29;20312;-66
2022/12/03 07:07:40;;;;;;;11.32;8.02;;;2.80;95.10;;;;;;4954360;29;20193;-66
2022/12/03 07:10:14;;;;;;;11.07;7.15;;;2.80;95.20;;;;;;4952955;29;20190;-65
2022/12/03 07:12:46;;;;;;;12.70;8.35;;;2.80;95.40;;;;;;4934923;29;20217;-65
2022/12/03 07:15:13;;;;;;;10.23;7.80;;;2.90;95.50;;;;;;4951685;29;20186;-65
2022/12/03 07:17:40;;;;;;;9.00;6.97;;;2.80;95.20;;;;;;4954020;29;20711;-66
2022/12/03 07:20:11;;;;;;;13.38;6.93;;;2.80;95.20;;;;;;4953570;29;20190;-65
2022/12/03 07:22:38;;;;;;;12.63;8.60;;;2.90;95.20;;;;;;4954184;29;20252;-65
2022/12/03 07:25:07;;;;;;;11.13;7.43;;;2.80;95.40;;;;;;4953624;29;20186;-66
2022/12/03 07:27:36;;;;;;;10.02;7.30;;;2.80;95.50;;;;;;4954041;29;20249;-66
2022/12/03 07:30:03;;;;;;;10.60;7.03;;;2.70;95.60;;;;;;4953566;29;20652;-65
2022/12/03 07:32:39;;;;;;;11.90;7.53;;;2.70;96.00;;;;;;4953969;29;20236;-66
2022/12/03 07:35:08;;;;;;;13.63;7.70;;;2.70;96.10;;;;;;4953636;29;20201;-65
2022/12/03 07:37:39;;;;;;;10.30;6.13;;;2.70;96.20;;;;;;4953981;29;20194;-65
2022/12/03 07:40:11;;;;;;;10.65;6.88;;;2.80;96.20;;;;;;4953550;29;20277;-66
2022/12/03 07:42:40;;;;;;;10.77;7.00;;;2.80;96.20;;;;;;4953536;29;20700;-65
2022/12/03 07:45:12;;;;;;;11.85;7.95;;;2.80;95.90;;;;;;4953633;29;20198;-66
2022/12/03 07:47:45;;;;;;;11.75;7.88;;;2.80;96.00;;;;;;4953909;29;20198;-65
2022/12/03 07:50:15;;;;;;;14.00;7.72;;;2.90;96.00;;;;;;4953980;29;20241;-65
2022/12/03 07:52:51;;;;;;;10.55;6.93;;;2.90;95.80;;;;;;4953838;29;20198;-65
2022/12/03 07:55:24;;;;;;;11.15;7.85;;;2.90;95.90;;;;;;4953624;29;20193;-65
2022/12/03 07:57:58;;;;;;;11.60;8.13;;;2.80;95.90;;;;;;4953922;28;20669;-65
2022/12/03 08:00:31;;;;;;;8.43;6.25;;;2.90;96.00;;;;;;4956838;29;20201;-65
2022/12/03 08:03:04;;;;;;;10.43;7.00;;;2.80;95.40;;;;;;4957117;29;20653;-65
2022/12/03 08:05:33;;;;;;;11.23;7.00;;;2.70;95.70;;;;;;4954234;28;20308;-65
2022/12/03 08:08:09;;;;;;;12.35;8.02;;;2.70;95.70;;;;;;4955385;29;20205;-65
2022/12/03 08:10:36;;;;;;;13.85;8.35;;;2.80;95.90;;;;;;4955322;29;20209;-65
2022/12/03 08:13:12;;;;;;;11.85;7.55;;;2.80;95.60;;;;;;4955111;29;20201;-65
2022/12/03 08:15:45;;;;;;;10.73;7.72;;;2.90;95.70;;;;;;4954662;29;20197;-65
2022/12/03 08:18:15;;;;;;;11.32;6.53;;;2.80;95.30;;;;;;4951871;29;20676;-65
2022/12/03 08:20:44;;;;;;;10.35;6.95;;;2.80;95.30;;;;;;4953495;29;20194;-65
2022/12/03 08:23:14;;;;;;;9.10;6.38;;;2.80;95.30;;;;;;4953942;29;20268;-65
2022/12/03 08:25:43;;;;;;;8.98;6.72;;;2.80;95.60;;;;;;4954792;29;20273;-65
2022/12/03 08:28:19;;;;;;;14.38;7.78;;;2.80;95.80;;;;;;4955091;29;20205;-66
2022/12/03 08:31:10;;;;;;;10.00;6.63;;;2.90;95.90;;;;;;4950459;29;20182;-65
2022/12/03 08:33:39;;;;;;;11.30;7.63;;;3.00;95.00;;;;;;4954141;29;20208;-65
2022/12/03 08:36:13;;;;;;;10.48;7.35;;;3.00;94.80;;;;;;4955224;29;20198;-66
2022/12/03 08:38:40;;;;;;;9.43;6.55;;;3.10;95.20;;;;;;4954628;29;20555;-65
2022/12/03 08:41:12;;;;;;;9.50;6.30;;;3.10;95.30;;;;;;4955029;29;20198;-65
2022/12/03 08:43:42;;;;;;;10.10;6.00;;;3.20;95.20;;;;;;4954806;29;20324;-66
2022/12/03 08:46:13;;;;;;;10.55;7.28;;;3.20;94.60;;;;;;4955313;29;20224;-65
2022/12/03 08:48:40;;;;;;;9.45;6.45;;;3.30;94.70;;;;;;4951629;29;20555;-66
2022/12/03 08:51:14;;;;;;;10.50;7.57;;;3.20;94.60;;;;;;4955250;29;20284;-65
2022/12/03 08:53:45;;;;;;;13.27;9.45;;;3.20;94.80;;;;;;4954886;29;20197;-66
2022/12/03 08:56:21;;;;;;;13.45;8.20;;;3.30;95.00;;;;;;4951667;29;20252;-66
2022/12/03 08:58:52;;;;;;;11.80;8.23;;;3.40;95.00;;;;;;4955119;29;20198;-66
2022/12/03 09:01:32;;;;;;;11.88;7.55;;;3.50;95.00;;;;;;4950951;29;20198;-66
2022/12/03 09:04:21;;;;;;;16.95;8.45;;;3.50;94.30;;;;;;4947718;29;20232;-66
2022/12/03 09:06:48;;;;;;;15.50;8.15;;;3.50;94.20;;;;;;4952259;29;20189;-65
2022/12/03 09:09:15;;;;;;;9.57;6.68;;;3.50;94.20;;;;;;4954006;28;20209;-66
2022/12/03 09:11:43;;;;;;;8.95;6.40;;;3.50;94.20;;;;;;4948852;29;20649;-65
2022/12/03 09:14:12;;;;;;;8.90;6.20;;;3.50;94.20;;;;;;4954534;29;20202;-65
2022/12/03 09:16:39;;;;;;;9.57;6.93;;;3.60;94.10;;;;;;4952049;29;20616;-66
2022/12/03 09:19:06;;;;;;;14.57;8.90;;;3.70;94.20;;;;;;4953165;29;20206;-66
2022/12/03 09:21:33;;;;;;;10.15;6.93;;;3.70;94.20;;;;;;4953311;29;20205;-65
2022/12/03 09:24:00;;;;;;;12.80;7.95;;;3.80;93.80;;;;;;4954271;29;20347;-65
2022/12/03 09:26:30;;;;;;;10.52;7.45;;;3.70;93.60;;;;;;4953826;29;20557;-65
2022/12/03 09:28:57;;;;;;;9.98;6.05;;;3.70;93.60;;;;;;4953254;29;20217;-65
2022/12/03 09:31:25;;;;;;;15.80;7.90;;;3.70;93.50;;;;;;4952890;29;20205;-65
2022/12/03 09:33:52;;;;;;;10.40;7.53;;;3.70;93.50;;;;;;4953996;29;20292;-65
2022/12/03 09:36:19;;;;;;;11.00;6.85;;;3.70;93.60;;;;;;4952145;29;20194;-65
2022/12/03 09:38:47;;;;;;;11.20;7.55;;;3.70;93.60;;;;;;4949673;29;20194;-65
2022/12/03 09:41:17;;;;;;;13.70;6.95;;;3.60;93.50;;;;;;4952877;29;20193;-65
2022/12/03 09:43:44;;;;;;;10.80;7.20;;;3.60;93.60;;;;;;4953700;29;20256;-65
2022/12/03 09:46:11;;;;;;;9.68;6.65;;;3.60;93.70;;;;;;4953282;29;20194;-65
2022/12/03 09:48:40;;;;;;;10.20;7.25;;;3.60;93.50;;;;;;4953432;29;20296;-65
2022/12/03 09:51:09;;;;;;;9.85;7.03;;;3.60;93.60;;;;;;4953539;29;20225;-65
2022/12/03 09:53:40;;;;;;;10.30;7.50;;;3.50;93.30;;;;;;4953357;29;20213;-65
2022/12/03 09:56:15;;;;;;;10.90;8.05;;;3.50;93.80;;;;;;4950099;29;20193;-65
2022/12/03 09:58:52;;;;;;;9.43;5.57;;;3.60;93.70;;;;;;4953659;29;20252;-65
2022/12/03 10:01:20;;;;;;;10.48;7.07;;;3.70;93.50;;;;;;4949803;29;20193;-65
2022/12/03 10:03:51;;;;;;;9.95;6.78;;;3.60;93.40;;;;;;4953123;29;20370;-65
2022/12/03 10:06:23;;;;;;;9.23;6.40;;;3.50;92.90;;;;;;4952614;29;20552;-64
2022/12/03 10:08:54;;;;;;;11.75;6.60;;;3.50;93.80;;;;;;4951191;29;20194;-65
2022/12/03 10:11:25;;;;;;;11.45;6.90;;;3.50;93.60;;;;;;4953164;29;20641;-65
2022/12/03 10:13:54;;;;;;;10.60;6.93;;;3.60;93.40;;;;;;4952762;29;20633;-65
2022/12/03 10:16:26;;;;;;;12.63;8.57;;;3.70;93.50;;;;;;4953348;29;20234;-65
2022/12/03 10:18:58;;;;;;;12.05;9.20;;;3.60;93.20;;;;;;4950097;29;20202;-65
2022/12/03 10:21:31;;;;;;;9.80;7.25;;;3.60;93.40;;;;;;4952318;28;20253;-65
2022/12/03 10:24:19;;;;;;;13.15;8.68;;;3.60;93.60;;;;;;4950440;29;20253;-65
2022/12/03 10:26:52;;;;;;;17.00;9.07;;;3.60;93.70;;;;;;4952774;29;20557;-65
2022/12/03 10:29:26;;;;;;;17.50;10.48;;;3.80;94.00;;;;;;4952642;29;20281;-65
2022/12/03 10:32:03;;;;;;;20.23;13.73;;;3.90;94.00;;;;;;4950896;29;20596;-65
2022/12/03 10:34:33;;;;;;;11.68;7.57;;;4.00;93.60;;;;;;4952608;29;20228;-65
2022/12/03 10:37:15;;;;;;;9.98;6.22;;;4.00;93.00;;;;;;4947427;29;20709;-65
2022/12/03 10:39:57;;;;;;;10.50;7.75;;;4.00;92.30;;;;;;4951999;29;20656;-65
2022/12/03 10:42:28;;;;;;;12.38;7.18;;;4.00;92.30;;;;;;4951004;29;20264;-65
2022/12/03 10:45:23;;;;;;;12.80;7.55;;;4.00;92.70;;;;;;4952365;29;20249;-65
2022/12/03 10:48:05;;;;;;;10.20;7.10;;;3.90;92.20;;;;;;4928560;29;20601;-64
2022/12/03 10:50:37;;;;;;;11.48;8.13;;;3.90;92.40;;;;;;4952433;29;20532;-65
2022/12/03 10:53:08;;;;;;;9.88;6.75;;;4.00;92.70;;;;;;4951147;29;20217;-65
2022/12/03 10:55:43;;;;;;;8.98;6.13;;;3.90;92.60;;;;;;4952954;29;20205;-65
2022/12/03 10:58:20;;;;;;;9.68;6.78;;;3.80;92.80;;;;;;4951908;29;20696;-65
2022/12/03 11:00:54;;;;;;;12.80;8.38;;;4.00;93.10;;;;;;4952060;29;20918;-65
2022/12/03 11:03:25;;;;;;;14.57;9.18;;;4.10;92.70;;;;;;4951497;29;20216;-65
2022/12/03 11:05:55;;;;;;;12.27;8.27;;;4.00;92.40;;;;;;4952643;29;20253;-65
2022/12/03 11:08:24;;;;;;;12.65;7.57;;;4.00;92.60;;;;;;4952158;29;20194;-65
2022/12/03 11:11:00;;;;;;;13.05;7.68;;;4.00;92.80;;;;;;4951543;29;20198;-65
2022/12/03 11:13:52;;;;;;;13.38;8.70;;;4.00;92.70;;;;;;4951902;29;20193;-65
2022/12/03 11:17:08;;;;;;;10.00;6.20;;;4.00;93.00;;;;;;4938188;29;20205;-65
2022/12/03 11:19:50;;;;;;;12.82;8.65;;;4.00;92.70;;;;;;4952340;29;20268;-65
2022/12/03 11:22:40;;;;;;;11.05;6.88;;;4.10;92.80;;;;;;4951747;29;20198;-65
2022/12/03 11:25:46;;;;;;;13.25;7.55;;;4.10;93.00;;;;;;4948767;29;20277;-65
2022/12/03 11:28:53;;;;;;;10.57;7.13;;;4.20;92.40;;;;;;4951556;29;20734;-65
2022/12/03 11:31:40;;;;;;;13.23;6.90;;;4.10;92.70;;;;;;4947503;28;20279;-65
2022/12/03 11:34:41;;;;;;;9.40;6.35;;;4.00;92.40;;;;;;4949444;28;20252;-65
2022/12/03 11:37:29;;;;;;;14.13;7.55;;;3.70;92.50;;;;;;4953765;28;20232;-65
2022/12/03 11:40:30;;;;;;;11.70;8.23;;;3.60;93.40;;;;;;4952152;29;20186;-65
2022/12/03 11:42:57;;;;;;;10.10;6.50;;;3.60;93.70;;;;;;4955435;29;20699;-65
2022/12/03 11:45:31;;;;;;;10.07;7.03;;;3.60;93.90;;;;;;4956442;29;20240;-66
2022/12/03 11:48:10;;;;;;;11.65;7.25;;;3.60;93.60;;;;;;4952611;29;20672;-66
2022/12/03 11:50:49;;;;;;;12.77;7.93;;;3.70;93.70;;;;;;4955865;29;20190;-66
2022/12/03 11:53:21;;;;;;;11.25;6.45;;;3.70;93.70;;;;;;4953018;29;20201;-66
2022/12/03 11:56:07;;;;;;;11.02;7.07;;;3.80;94.30;;;;;;4955847;29;20198;-65
2022/12/03 11:58:35;;;;;;;9.73;7.05;;;3.80;94.20;;;;;;4956234;29;20193;-65
2022/12/03 12:01:04;;;;;;;10.15;7.10;;;3.90;93.60;;;;;;4955740;29;20283;-65
2022/12/03 12:03:32;;;;;;;11.95;7.60;;;3.80;93.50;;;;;;4955792;29;20281;-66
2022/12/03 12:06:05;;;;;;;11.23;8.00;;;3.80;93.80;;;;;;4955016;29;20213;-65
2022/12/03 12:08:36;;;;;;;13.63;8.57;;;3.80;94.20;;;;;;4955508;29;20198;-66
2022/12/03 12:11:16;;;;;;;12.02;8.30;;;3.80;94.20;;;;;;4955891;29;20194;-65
2022/12/03 12:13:55;;;;;;;11.50;7.40;;;3.90;94.30;;;;;;4955515;29;20190;-66
2022/12/03 12:16:48;;;;;;;13.82;8.23;;;3.90;94.20;;;;;;4955284;29;20197;-66
2022/12/03 12:19:38;;;;;;;12.30;7.32;;;4.00;94.20;;;;;;4956257;29;20200;-66
2022/12/03 12:22:33;;;;;;;11.38;7.63;;;4.00;94.10;;;;;;4956044;29;20200;-65
2022/12/03 12:25:03;;;;;;;12.52;8.30;;;4.00;94.00;;;;;;4953648;29;20237;-66
2022/12/03 12:27:44;;;;;;;12.05;9.40;;;4.00;93.70;;;;;;4953837;29;20178;-65
2022/12/03 12:30:18;;;;;;;14.63;9.05;;;4.00;93.90;;;;;;4954706;29;20193;-66
2022/12/03 12:32:50;;;;;;;13.25;8.32;;;3.90;94.00;;;;;;4954948;29;20194;-65
2022/12/03 12:35:20;;;;;;;13.32;8.23;;;3.90;94.30;;;;;;4955061;29;20197;-65
2022/12/03 12:37:54;;;;;;;20.15;13.40;;;4.00;94.20;;;;;;4954963;29;20201;-66
2022/12/03 12:40:25;;;;;;;15.07;8.88;;;4.10;94.30;;;;;;4954637;29;20197;-66
2022/12/03 12:43:11;;;;;;;15.55;8.85;;;4.10;94.00;;;;;;4954700;29;20308;-66
2022/12/03 12:45:47;;;;;;;16.25;10.23;;;4.10;94.10;;;;;;4950720;28;20658;-66
2022/12/03 12:48:23;;;;;;;16.05;9.93;;;4.10;94.30;;;;;;4954798;29;20574;-66
2022/12/03 12:50:59;;;;;;;14.48;9.93;;;4.10;94.40;;;;;;4951584;29;20198;-65
2022/12/03 12:53:34;;;;;;;13.80;9.63;;;4.10;94.20;;;;;;4954851;29;20197;-66
2022/12/03 12:56:11;;;;;;;17.15;9.88;;;4.00;94.20;;;;;;4954443;29;20293;-66
2022/12/03 12:58:43;;;;;;;15.57;10.02;;;4.10;94.40;;;;;;4954284;29;20719;-66
2022/12/03 13:01:21;;;;;;;15.52;9.65;;;4.00;94.30;;;;;;4954414;29;20229;-66
2022/12/03 13:03:58;;;;;;;13.85;9.15;;;3.80;94.60;;;;;;4954219;29;20255;-65
2022/12/03 13:06:31;;;;;;;19.40;10.90;;;3.80;94.80;;;;;;4954428;29;20197;-66
2022/12/03 13:09:00;;;;;;;15.63;10.02;;;3.80;94.90;;;;;;4954583;29;20205;-66
2022/12/03 13:11:35;;;;;;;16.10;10.48;;;3.80;95.00;;;;;;4954174;29;20197;-66
2022/12/03 13:14:10;;;;;;;17.08;10.80;;;3.80;94.80;;;;;;4954314;29;20205;-65
2022/12/03 13:16:39;;;;;;;14.85;9.57;;;3.80;94.80;;;;;;4953962;29;20256;-65
2022/12/03 13:19:19;;;;;;;18.35;11.02;;;3.90;94.80;;;;;;4950408;29;20193;-66
2022/12/03 13:21:47;;;;;;;16.98;11.05;;;3.90;94.80;;;;;;4954233;29;20197;-65
2022/12/03 13:24:38;;;;;;;17.02;10.15;;;3.80;94.90;;;;;;4953872;29;20226;-65
2022/12/03 13:27:24;;;;;;;15.10;9.52;;;3.80;95.10;;;;;;4935412;28;20202;-65
2022/12/03 13:29:56;;;;;;;13.82;9.90;;;3.90;95.20;;;;;;4953911;29;20197;-65